createdAt,value
2022-09-04T00:02:04.054Z,20.61
2022-09-04T00:04:53.765Z,20.61
2022-09-04T00:07:35.911Z,20.60
2022-09-04T00:10:33.043Z,20.59
2022-09-04T00:13:21.238Z,20.62
2022-09-04T00:15:58.083Z,20.61
2022-09-04T00:18:39.886Z,20.62
2022-09-04T00:21:22.187Z,20.60
2022-09-04T00:24:03.673Z,20.58
2022-09-04T00:27:01.364Z,20.56
2022-09-04T00:30:01.858Z,20.53
2022-09-04T00:32:55.006Z,20.52
2022-09-04T00:35:51.860Z,20.49
2022-09-04T00:38:41.434Z,20.47
2022-09-04T00:41:33.232Z,20.45
2022-09-04T00:44:57.963Z,20.43
2022-09-04T00:48:03.572Z,20.41
2022-09-04T00:50:41.015Z,20.39
2022-09-04T00:53:51.882Z,20.33
2022-09-04T00:57:10.983Z,20.30
2022-09-04T00:59:59.483Z,20.27
2022-09-04T01:03:01.881Z,20.25
2022-09-04T01:05:40.534Z,20.22
2022-09-04T01:08:59.993Z,20.21
2022-09-04T01:11:43.159Z,20.18
2022-09-04T01:14:29.538Z,20.16
2022-09-04T01:17:44.150Z,20.12
2022-09-04T01:20:28.231Z,20.13
2022-09-04T01:23:22.132Z,20.10
2022-09-04T01:26:00.934Z,20.07
2022-09-04T01:29:07.257Z,20.04
2022-09-04T01:32:31.709Z,19.99
2022-09-04T01:35:50.843Z,19.96
2022-09-04T01:38:38.598Z,19.94
2022-09-04T01:41:54.358Z,19.87
2022-09-04T01:44:21.256Z,19.86
2022-09-04T01:47:00.875Z,19.83
2022-09-04T01:50:04.140Z,19.77
2022-09-04T01:52:54.811Z,19.68
2022-09-04T01:55:52.365Z,19.54
2022-09-04T01:58:35.418Z,19.50
2022-09-04T02:01:29.196Z,19.39
2022-09-04T02:04:34.637Z,19.32
2022-09-04T02:07:33.780Z,19.23
2022-09-04T02:10:29.170Z,19.10
2022-09-04T02:13:44.887Z,19.01
2022-09-04T02:17:08.039Z,18.91
2022-09-04T02:20:09.471Z,18.86
2022-09-04T02:22:54.732Z,18.82
2022-09-04T02:25:49.276Z,18.80
2022-09-04T02:28:30.754Z,18.81
2022-09-04T02:31:10.448Z,18.81
2022-09-04T02:33:54.054Z,18.78
2022-09-04T02:36:50.307Z,18.77
2022-09-04T02:40:02.330Z,18.71
2022-09-04T02:43:12.563Z,18.61
2022-09-04T02:46:13.650Z,18.57
2022-09-04T02:49:15.258Z,18.54
2022-09-04T02:52:17.480Z,18.48
2022-09-04T02:55:11.029Z,18.44
2022-09-04T02:58:26.460Z,18.45
2022-09-04T03:01:15.348Z,18.44
2022-09-04T03:03:52.917Z,18.45
2022-09-04T03:06:42.011Z,18.43
2022-09-04T03:09:27.517Z,18.39
2022-09-04T03:12:06.401Z,18.37
2022-09-04T03:14:43.975Z,18.34
2022-09-04T03:17:33.391Z,18.31
2022-09-04T03:20:10.012Z,18.28
2022-09-04T03:22:47.561Z,18.24
2022-09-04T03:26:05.336Z,18.18
2022-09-04T03:28:50.110Z,18.11
2022-09-04T03:31:48.871Z,18.00
2022-09-04T03:34:37.901Z,17.99
2022-09-04T03:37:29.218Z,17.91
2022-09-04T03:40:45.707Z,17.84
2022-09-04T03:43:49.756Z,17.81
2022-09-04T03:46:25.171Z,17.77
2022-09-04T03:49:08.759Z,17.71
2022-09-04T03:52:11.126Z,17.65
2022-09-04T03:55:07.236Z,17.63
2022-09-04T03:57:46.879Z,17.61
2022-09-04T04:00:20.503Z,17.60
2022-09-04T04:03:03.135Z,17.58
2022-09-04T04:06:10.283Z,17.54
2022-09-04T04:09:04.736Z,17.50
2022-09-04T04:12:27.438Z,17.46
2022-09-04T04:15:46.079Z,17.44
2022-09-04T04:18:45.248Z,17.40
2022-09-04T04:21:57.634Z,17.39
2022-09-04T04:24:48.113Z,17.36
2022-09-04T04:27:59.089Z,17.30
2022-09-04T04:30:39.553Z,17.14
2022-09-04T04:33:37.435Z,17.04
2022-09-04T04:36:51.828Z,16.95
2022-09-04T04:39:41.557Z,16.92
2022-09-04T04:42:31.436Z,16.92
2022-09-04T04:45:46.788Z,16.90
2022-09-04T04:48:50.314Z,16.95
2022-09-04T04:52:05.374Z,16.97
2022-09-04T04:54:58.090Z,16.99
2022-09-04T04:58:11.483Z,17.01
2022-09-04T05:00:49.725Z,17.07
2022-09-04T05:04:00.799Z,17.08
2022-09-04T05:07:00.129Z,17.01
2022-09-04T05:09:58.596Z,16.88
2022-09-04T05:12:55.165Z,16.77
2022-09-04T05:16:07.448Z,16.84
2022-09-04T05:18:45.414Z,16.86
2022-09-04T05:21:24.741Z,16.89
2022-09-04T05:24:22.592Z,16.92
2022-09-04T05:27:17.303Z,16.94
2022-09-04T05:30:08.042Z,16.98
2022-09-04T05:32:58.944Z,16.84
2022-09-04T05:35:41.148Z,16.87
2022-09-04T05:38:22.294Z,16.81
2022-09-04T05:41:20.542Z,16.81
2022-09-04T05:44:12.167Z,16.92
2022-09-04T05:47:18.751Z,17.02
2022-09-04T05:50:30.357Z,17.13
2022-09-04T05:53:29.014Z,17.23
2022-09-04T05:56:36.163Z,17.34
2022-09-04T05:59:22.281Z,17.43
2022-09-04T06:02:06.561Z,17.53
2022-09-04T06:05:22.796Z,17.60
2022-09-04T06:08:33.017Z,17.64
2022-09-04T06:11:40.979Z,17.74
2022-09-04T06:14:45.304Z,17.80
2022-09-04T06:17:28.911Z,17.77
2022-09-04T06:20:24.494Z,17.78
2022-09-04T06:23:24.104Z,17.78
2022-09-04T06:26:26.712Z,17.83
2022-09-04T06:29:27.167Z,17.90
2022-09-04T06:32:35.985Z,17.97
2022-09-04T06:35:18.823Z,18.03
2022-09-04T06:38:12.683Z,18.07
2022-09-04T06:41:05.173Z,18.10
2022-09-04T06:44:12.904Z,18.14
2022-09-04T06:47:29.426Z,18.23
2022-09-04T06:50:31.576Z,18.31
2022-09-04T06:53:22.462Z,18.44
2022-09-04T06:56:34.006Z,18.54
2022-09-04T06:59:22.839Z,18.59
2022-09-04T07:02:04.219Z,18.65
2022-09-04T07:05:09.888Z,18.71
2022-09-04T07:08:09.971Z,18.73
2022-09-04T07:11:00.417Z,18.79
2022-09-04T07:14:01.060Z,18.85
2022-09-04T07:16:38.855Z,18.91
2022-09-04T07:19:46.732Z,19.06
2022-09-04T07:22:50.392Z,19.12
2022-09-04T07:26:00.611Z,19.24
2022-09-04T07:28:59.770Z,19.33
2022-09-04T07:32:10.911Z,19.43
2022-09-04T07:35:02.712Z,19.46
2022-09-04T07:38:07.513Z,19.56
2022-09-04T07:40:38.808Z,19.58
2022-09-04T07:43:08.178Z,19.70
2022-09-04T07:45:51.185Z,19.72
2022-09-04T07:48:31.991Z,19.83
2022-09-04T07:51:10.305Z,19.88
2022-09-04T07:54:02.283Z,19.90
2022-09-04T07:57:05.981Z,19.92
2022-09-04T07:59:53.103Z,20.04
2022-09-04T08:02:39.076Z,20.11
2022-09-04T08:05:34.546Z,20.18
2022-09-04T08:08:37.849Z,20.22
2022-09-04T08:11:38.218Z,20.28
2022-09-04T08:14:19.740Z,20.36
2022-09-04T08:17:43.056Z,20.42
2022-09-04T08:20:51.729Z,20.43
2022-09-04T08:23:36.195Z,20.45
2022-09-04T08:26:48.888Z,20.51
2022-09-04T08:29:53.868Z,20.63
2022-09-04T08:32:43.079Z,20.78
2022-09-04T08:35:27.324Z,20.80
2022-09-04T08:38:28.700Z,20.77
2022-09-04T08:41:31.896Z,20.78
2022-09-04T08:44:48.581Z,20.84
2022-09-04T08:47:35.779Z,20.94
2022-09-04T08:50:19.085Z,21.02
2022-09-04T08:53:06.406Z,21.10
2022-09-04T08:55:56.164Z,21.14
2022-09-04T08:59:09.404Z,21.26
2022-09-04T09:02:20.215Z,21.35
2022-09-04T09:05:36.428Z,21.53
2022-09-04T09:08:48.741Z,21.65
2022-09-04T09:11:48.079Z,21.78
2022-09-04T09:15:02.047Z,21.82
2022-09-04T09:18:09.042Z,21.91
2022-09-04T09:20:56.665Z,22.00
2022-09-04T09:24:04.693Z,22.13
2022-09-04T09:26:38.833Z,22.20
2022-09-04T09:29:42.298Z,22.28
2022-09-04T09:32:48.284Z,22.38
2022-09-04T09:36:29.915Z,22.47
2022-09-04T09:39:36.222Z,22.56
2022-09-04T09:42:24.072Z,22.67
2022-09-04T09:45:25.205Z,22.77
2022-09-04T09:48:32.185Z,22.89
2022-09-04T09:51:23.620Z,22.95
2022-09-04T09:54:28.127Z,23.08
2022-09-04T09:57:34.161Z,23.18
2022-09-04T10:00:22.782Z,23.29
2022-09-04T10:03:32.797Z,23.37
2022-09-04T10:06:27.141Z,23.45
2022-09-04T10:09:34.576Z,23.54
2022-09-04T10:12:56.455Z,23.60
2022-09-04T10:16:10.610Z,23.64
2022-09-04T10:19:07.000Z,23.70
2022-09-04T10:22:12.124Z,23.79
2022-09-04T10:25:21.530Z,23.89
2022-09-04T10:28:12.973Z,24.02
2022-09-04T10:31:27.086Z,24.17
2022-09-04T10:34:04.784Z,24.31
2022-09-04T10:37:19.434Z,24.50
2022-09-04T10:40:28.333Z,24.69
2022-09-04T10:43:37.374Z,24.83
2022-09-04T10:46:23.220Z,24.95
2022-09-04T10:49:30.337Z,25.07
2022-09-04T10:52:40.821Z,25.15
2022-09-04T10:55:46.956Z,25.20
2022-09-04T10:58:40.990Z,25.31
2022-09-04T11:01:55.703Z,25.38
2022-09-04T11:04:38.472Z,25.44
2022-09-04T11:07:49.228Z,25.53
2022-09-04T11:11:06.931Z,25.60
2022-09-04T11:14:06.039Z,25.70
2022-09-04T11:16:59.851Z,25.75
2022-09-04T11:19:54.165Z,25.79
2022-09-04T11:22:59.490Z,25.81
2022-09-04T11:26:08.065Z,25.82
2022-09-04T11:29:31.349Z,25.84
2022-09-04T11:32:39.476Z,25.92
2022-09-04T11:35:19.256Z,26.03
2022-09-04T11:37:59.831Z,26.15
2022-09-04T11:41:17.331Z,26.24
2022-09-04T11:44:25.178Z,26.31
2022-09-04T11:47:06.704Z,26.35
2022-09-04T11:50:07.016Z,26.38
2022-09-04T11:53:11.306Z,26.41
2022-09-04T11:56:08.279Z,26.50
2022-09-04T11:59:15.401Z,26.57
2022-09-04T12:02:31.891Z,26.62
2022-09-04T12:05:42.026Z,26.57
2022-09-04T12:08:46.220Z,26.61
2022-09-04T12:12:04.032Z,26.64
2022-09-04T12:15:22.229Z,26.70
2022-09-04T12:18:04.675Z,26.75
2022-09-04T12:21:06.734Z,26.75
2022-09-04T12:24:08.815Z,26.81
2022-09-04T12:27:01.620Z,26.86
2022-09-04T12:30:19.160Z,26.94
2022-09-04T12:33:31.167Z,27.00
2022-09-04T12:36:17.571Z,27.08
2022-09-04T12:39:03.495Z,27.09
2022-09-04T12:41:45.773Z,27.12
2022-09-04T12:44:41.744Z,27.17
2022-09-04T12:47:58.002Z,27.22
2022-09-04T12:51:11.781Z,27.31
2022-09-04T12:54:09.432Z,27.37
2022-09-04T12:56:49.334Z,27.39
2022-09-04T12:59:57.347Z,27.38
2022-09-04T13:03:11.223Z,27.45
2022-09-04T13:06:19.118Z,27.46
2022-09-04T13:09:15.586Z,27.61
2022-09-04T13:12:29.321Z,27.67
2022-09-04T13:15:19.324Z,27.75
2022-09-04T13:18:12.467Z,27.85
2022-09-04T13:21:43.323Z,27.98
2022-09-04T13:24:35.870Z,28.11
2022-09-04T13:27:48.119Z,28.22
2022-09-04T13:30:24.481Z,28.26
2022-09-04T13:33:03.355Z,28.23
2022-09-04T13:35:59.205Z,28.18
2022-09-04T13:39:00.647Z,28.11
2022-09-04T13:41:54.867Z,28.02
2022-09-04T13:44:50.062Z,27.98
2022-09-04T13:47:22.793Z,27.98
2022-09-04T13:50:25.748Z,28.08
2022-09-04T13:53:06.424Z,28.11
2022-09-04T13:55:41.784Z,28.16
2022-09-04T13:58:20.268Z,28.14
2022-09-04T14:00:57.049Z,28.13
2022-09-04T14:03:37.768Z,28.12
2022-09-04T14:06:08.898Z,28.07
2022-09-04T14:08:37.884Z,28.07
2022-09-04T14:11:53.292Z,28.00
2022-09-04T14:14:48.557Z,27.91
2022-09-04T14:17:26.958Z,27.86
2022-09-04T14:20:12.547Z,27.80
2022-09-04T14:23:06.493Z,27.79
2022-09-04T14:26:12.921Z,27.70
2022-09-04T14:28:48.428Z,27.68
2022-09-04T14:31:46.847Z,27.66
2022-09-04T14:34:57.136Z,27.68
2022-09-04T14:37:52.011Z,27.65
2022-09-04T14:40:37.499Z,27.64
2022-09-04T14:43:34.943Z,27.57
2022-09-04T14:46:24.194Z,27.49
2022-09-04T14:49:06.115Z,27.40
2022-09-04T14:51:38.320Z,27.36
2022-09-04T14:54:06.747Z,27.31
2022-09-04T14:56:53.251Z,27.19
2022-09-04T14:59:34.372Z,27.05
2022-09-04T15:02:17.507Z,26.94
2022-09-04T15:05:13.174Z,26.86
2022-09-04T15:07:42.787Z,26.80
2022-09-04T15:10:40.099Z,26.77
2022-09-04T15:13:28.714Z,26.70
2022-09-04T15:16:40.049Z,26.66
2022-09-04T15:19:47.503Z,26.63
2022-09-04T15:22:39.621Z,26.60
2022-09-04T15:25:47.919Z,26.57
2022-09-04T15:28:39.364Z,26.49
2022-09-04T15:31:32.267Z,26.43
2022-09-04T15:34:03.562Z,26.42
2022-09-04T15:36:31.428Z,26.35
2022-09-04T15:39:01.473Z,26.32
2022-09-04T15:41:48.167Z,26.25
2022-09-04T15:44:29.921Z,26.25
2022-09-04T15:47:12.292Z,26.24
2022-09-04T15:49:51.527Z,26.28
2022-09-04T15:52:40.263Z,26.29
2022-09-04T15:55:38.580Z,26.26
2022-09-04T15:58:30.342Z,26.24
2022-09-04T16:01:06.200Z,26.19
2022-09-04T16:04:03.326Z,26.13
2022-09-04T16:06:54.111Z,26.05
2022-09-04T16:09:31.732Z,25.93
2022-09-04T16:12:11.843Z,25.81
2022-09-04T16:14:53.231Z,25.72
2022-09-04T16:17:27.206Z,25.63
2022-09-04T16:20:11.692Z,25.61
2022-09-04T16:22:47.527Z,25.56
2022-09-04T16:25:31.708Z,25.45
2022-09-04T16:28:20.082Z,25.35
2022-09-04T16:30:56.436Z,25.28
2022-09-04T16:33:30.354Z,25.28
2022-09-04T16:36:45.683Z,25.30
2022-09-04T16:39:59.341Z,25.27
2022-09-04T16:42:46.390Z,25.20
2022-09-04T16:45:30.079Z,25.13
2022-09-04T16:48:34.777Z,25.12
2022-09-04T16:51:40.387Z,25.13
2022-09-04T16:54:30.805Z,25.06
2022-09-04T16:57:14.720Z,25.06
2022-09-04T16:59:46.188Z,25.03
2022-09-04T17:02:41.833Z,25.01
2022-09-04T17:05:45.750Z,24.92
2022-09-04T17:08:34.959Z,24.82
2022-09-04T17:11:22.653Z,24.72
2022-09-04T17:14:19.146Z,24.68
2022-09-04T17:16:52.763Z,24.62
2022-09-04T17:19:21.831Z,24.53
2022-09-04T17:27:29.578Z,24.47
2022-09-04T17:29:15.825Z,24.40
2022-09-04T17:29:34.906Z,24.40
2022-09-04T17:31:59.465Z,24.36
2022-09-04T17:40:38.802Z,24.29
2022-09-04T17:40:48.846Z,24.23
2022-09-04T17:41:49.351Z,24.13
2022-09-04T17:44:46.682Z,24.05
2022-09-04T17:47:31.865Z,24.02
2022-09-04T17:50:00.722Z,23.96
2022-09-04T17:52:53.001Z,23.91
2022-09-04T17:55:20.880Z,23.88
2022-09-04T17:58:08.759Z,23.83
2022-09-04T18:01:15.148Z,23.76
2022-09-04T18:04:22.404Z,23.60
2022-09-04T18:07:21.884Z,23.53
2022-09-04T18:10:31.218Z,23.42
2022-09-04T18:13:38.914Z,23.39
2022-09-04T18:16:42.334Z,23.35
2022-09-04T18:19:28.246Z,23.37
2022-09-04T18:22:31.992Z,23.39
2022-09-04T18:25:28.335Z,23.35
2022-09-04T18:28:26.619Z,23.32
2022-09-04T18:37:11.744Z,23.28
2022-09-04T18:37:21.951Z,23.29
2022-09-04T18:37:45.857Z,23.22
2022-09-04T18:42:30.207Z,23.16
2022-09-04T18:50:25.240Z,23.08
2022-09-04T18:50:31.684Z,23.05
2022-09-04T18:50:35.290Z,23.00
2022-09-04T18:53:17.323Z,23.04
2022-09-04T18:56:02.000Z,23.04
2022-09-04T18:58:43.369Z,23.04
2022-09-04T19:01:27.335Z,23.01
2022-09-04T19:04:58.891Z,22.94
2022-09-04T19:07:35.291Z,22.90
2022-09-04T19:10:21.818Z,22.89
2022-09-04T19:13:10.055Z,22.82
2022-09-04T19:16:11.640Z,22.77
2022-09-04T19:18:41.750Z,22.74
2022-09-04T19:21:11.203Z,22.71
2022-09-04T19:24:05.460Z,22.64
2022-09-04T19:26:54.165Z,22.56
2022-09-04T19:29:30.355Z,22.49
2022-09-04T19:32:07.445Z,22.46
2022-09-04T19:35:08.570Z,22.39
2022-09-04T19:40:15.205Z,22.28
2022-09-04T19:46:08.363Z,22.21
2022-09-04T19:46:14.130Z,22.15
2022-09-04T19:47:39.953Z,22.05
2022-09-04T19:53:21.652Z,22.00
2022-09-04T19:53:36.808Z,21.92
2022-09-04T19:56:27.739Z,21.85
2022-09-04T19:59:39.251Z,21.78
2022-09-04T20:03:07.036Z,21.71
2022-09-04T20:05:35.391Z,21.64
2022-09-04T20:08:24.527Z,21.62
2022-09-04T20:10:58.428Z,21.55
2022-09-04T20:13:42.664Z,21.49
2022-09-04T20:16:22.505Z,21.44
2022-09-04T20:19:37.506Z,21.32
2022-09-04T20:22:28.838Z,21.27
2022-09-04T20:25:07.044Z,21.23
2022-09-04T20:27:46.903Z,21.17
2022-09-04T20:30:22.152Z,21.18
2022-09-04T20:33:06.517Z,21.09
2022-09-04T20:35:42.206Z,21.09
2022-09-04T20:38:46.005Z,21.04
2022-09-04T20:41:20.627Z,21.01
2022-09-04T20:44:13.383Z,20.98
2022-09-04T20:52:29.769Z,20.95
2022-09-04T20:53:04.839Z,20.88
2022-09-04T20:53:47.751Z,20.81
2022-09-04T20:59:53.948Z,20.78
2022-09-04T21:03:08.103Z,20.75
2022-09-04T21:03:32.623Z,20.74
2022-09-04T21:06:25.246Z,20.70
2022-09-04T21:09:17.248Z,20.67
2022-09-04T21:11:50.104Z,20.63
2022-09-04T21:14:45.419Z,20.65
2022-09-04T21:17:59.044Z,20.64
2022-09-04T21:20:51.867Z,20.68
2022-09-04T21:24:21.494Z,20.68
2022-09-04T21:27:20.360Z,20.70
2022-09-04T21:29:52.249Z,20.73
2022-09-04T21:32:48.243Z,20.75
2022-09-04T21:35:28.127Z,20.74
2022-09-04T21:38:35.235Z,20.73
2022-09-04T21:41:31.494Z,20.73
2022-09-04T21:44:42.627Z,20.71
2022-09-04T21:47:31.123Z,20.72
2022-09-04T21:50:49.570Z,20.73
2022-09-04T21:54:38.328Z,20.73
2022-09-04T22:02:35.290Z,20.69
2022-09-04T22:02:42.419Z,20.72
2022-09-04T22:04:02.324Z,20.74
2022-09-04T22:08:41.232Z,20.76
2022-09-04T22:13:42.209Z,20.76
2022-09-04T22:13:48.023Z,20.80
2022-09-04T22:16:55.012Z,20.81
2022-09-04T22:20:08.567Z,20.81
2022-09-04T22:23:20.084Z,20.82
2022-09-04T22:26:24.151Z,20.83
2022-09-04T22:29:44.767Z,20.84
2022-09-04T22:33:13.748Z,20.82
2022-09-04T22:36:52.889Z,20.83
2022-09-04T22:40:17.263Z,20.83
2022-09-04T22:43:12.868Z,20.85
2022-09-04T22:46:16.204Z,20.85
2022-09-04T22:49:16.174Z,20.84
2022-09-04T22:52:22.052Z,20.84
2022-09-04T22:55:39.640Z,20.82
2022-09-04T22:58:55.795Z,20.82
2022-09-04T23:02:20.389Z,20.83
2022-09-04T23:04:53.878Z,20.83
2022-09-04T23:13:43.264Z,20.83
2022-09-04T23:13:52.628Z,20.81
2022-09-04T23:14:31.354Z,20.80
2022-09-04T23:17:23.361Z,20.81
2022-09-04T23:25:52.032Z,20.83
2022-09-04T23:26:47.170Z,20.81
2022-09-04T23:27:30.776Z,20.81
2022-09-04T23:30:26.539Z,20.83
2022-09-04T23:33:49.368Z,20.83
2022-09-04T23:36:33.846Z,20.84
2022-09-04T23:39:28.816Z,20.83
2022-09-04T23:42:26.019Z,20.82
2022-09-04T23:45:53.888Z,20.82
2022-09-04T23:49:06.926Z,20.81
2022-09-04T23:51:54.535Z,20.82
2022-09-04T23:55:09.910Z,20.83
2022-09-04T23:58:31.280Z,20.86
